Time;durP1;ratioP1;P1;durP2;ratioP2;P2;SDS_P1;SDS_P2;PMS_P1;PMS_P2;Temp;Humidity;BMP_temperature;BMP_pressure;BME280_temperature;BME280_humidity;BME280_pressure;Samples;Min_cycle;Max_cycle;Signal;HPM_P1;HPM_P2
2023/04/27 16:55:41;;;;;;;6.17;2.80;;;;;;;15.80;46.01;149044.81;5147183;27;20571;-48
2023/04/27 16:58:23;;;;;;;6.33;2.90;;;;;;;15.76;45.73;149034.72;5119114;27;20218;-47
2023/04/27 17:01:00;;;;;;;3.00;2.80;;;;;;;15.63;45.49;149001.88;5127114;27;20762;-46
2023/04/27 17:03:42;;;;;;;3.30;2.90;;;;;;;15.65;46.35;149008.19;5125814;27;20236;-52
2023/04/27 17:06:10;;;;;;;4.43;4.00;;;;;;;15.71;46.38;149022.06;5126415;27;20294;-52
2023/04/27 17:08:56;;;;;;;6.05;3.40;;;;;;;15.67;46.56;149012.00;5125429;27;20869;-46
2023/04/27 17:11:33;;;;;;;2.93;2.77;;;;;;;15.63;46.92;149003.16;5126332;28;20226;-48
2023/04/27 17:14:13;;;;;;;3.07;2.87;;;;;;;15.63;47.08;149003.16;5125788;27;20234;-47
2023/04/27 17:17:08;;;;;;;3.47;3.27;;;;;;;15.64;47.21;149005.69;5122859;27;20228;-46
2023/04/27 17:19:41;;;;;;;3.97;3.53;;;;;;;15.69;47.48;149017.06;5128031;27;20281;-50
2023/04/27 17:22:28;;;;;;;3.60;3.30;;;;;;;15.64;47.26;149004.41;5136564;27;20201;-46
2023/04/27 17:28:34;;;;;;;4.27;3.23;;;;;;;15.54;47.05;148980.38;5128014;27;20241;-51
2023/04/27 17:31:12;;;;;;;3.73;2.90;;;;;;;15.42;47.20;148950.09;5132450;27;20246;-47
2023/04/27 17:33:42;;;;;;;3.83;2.60;;;;;;;15.35;47.33;148932.44;5135504;27;20206;-52
2023/04/27 17:36:29;;;;;;;3.13;2.77;;;;;;;15.31;47.28;148922.31;5135629;27;20277;-53
2023/04/27 17:39:03;;;;;;;2.63;2.43;;;;;;;15.23;46.70;148904.69;5133718;27;20202;-52
2023/04/27 17:41:44;;;;;;;3.30;3.03;;;;;;;15.20;47.15;148897.09;5135511;27;20186;-51
2023/04/27 17:44:18;;;;;;;4.93;3.28;;;;;;;15.21;46.86;148899.63;5133105;27;20437;-50
2023/04/27 17:46:59;;;;;;;3.13;2.80;;;;;;;15.16;47.57;148886.97;5127772;27;20596;-49
2023/04/27 17:49:30;;;;;;;3.10;2.80;;;;;;;15.17;47.00;148888.25;5132314;27;20221;-51
2023/04/27 17:51:59;;;;;;;3.53;3.23;;;;;;;15.25;46.91;148909.69;5132070;27;20273;-51
2023/04/27 17:54:30;;;;;;;3.97;2.57;;;;;;;15.18;46.78;148892.03;5125985;27;20226;-51
2023/04/27 17:56:59;;;;;;;5.30;2.87;;;;;;;15.17;46.96;148888.25;5125997;27;20670;-47
2023/04/27 17:59:48;;;;;;;4.10;3.80;;;;;;;15.13;47.47;148878.13;5132345;27;20219;-47
2023/04/27 18:05:15;;;;;;;3.17;2.80;;;;;;;15.04;47.43;148856.69;5131086;27;20754;-47
2023/04/27 18:07:51;;;;;;;3.63;3.33;;;;;;;14.91;47.49;148823.88;5117931;27;20194;-48
2023/04/27 18:10:39;;;;;;;5.20;2.87;;;;;;;14.91;47.89;148823.88;5111618;28;20194;-47
2023/04/27 18:13:20;;;;;;;2.97;2.77;;;;;;;14.89;47.38;148820.16;5110532;28;20199;-46
2023/04/27 18:16:10;;;;;;;3.00;2.80;;;;;;;14.89;47.22;148818.88;5110952;28;20587;-47
2023/04/27 18:18:43;;;;;;;3.07;2.77;;;;;;;14.87;47.30;148815.09;5110661;28;20689;-50
2023/04/27 18:21:15;;;;;;;4.13;2.83;;;;;;;14.72;47.50;148777.22;5113473;28;20263;-47
2023/04/27 18:23:52;;;;;;;3.67;3.30;;;;;;;14.67;47.31;148763.38;5113430;28;20207;-47
2023/04/27 18:26:27;;;;;;;3.60;3.10;;;;;;;14.63;47.01;148754.53;5129343;27;20437;-47
2023/04/27 18:28:54;;;;;;;5.27;3.03;;;;;;;14.64;46.63;148755.78;5116395;27;20502;-48
2023/04/27 18:31:23;;;;;;;6.40;4.43;;;;;;;14.63;46.47;148753.28;5120856;27;20717;-48
2023/04/27 18:33:50;;;;;;;7.90;3.00;;;;;;;14.62;46.74;148752.00;5132397;27;20230;-48
2023/04/27 18:36:19;;;;;;;3.17;2.97;;;;;;;14.63;46.72;148753.28;5132197;27;20217;-48
2023/04/27 18:38:50;;;;;;;4.60;3.17;;;;;;;14.57;46.79;148739.38;5132300;27;20216;-48
2023/04/27 18:41:22;;;;;;;5.70;3.27;;;;;;;14.60;47.07;148746.94;5131369;27;20221;-49
2023/04/27 18:44:19;;;;;;;6.90;3.80;;;;;;;14.61;46.89;148749.47;5091106;28;20219;-51
2023/04/27 18:47:07;;;;;;;4.50;3.33;;;;;;;14.55;46.83;148734.38;5091136;28;20756;-52
2023/04/27 18:50:05;;;;;;;3.40;3.17;;;;;;;14.58;46.41;148740.63;5090602;28;20223;-50
2023/04/27 18:52:44;;;;;;;3.80;3.50;;;;;;;14.57;46.79;148739.38;5089997;28;20235;-51
2023/04/27 18:55:18;;;;;;;8.07;3.77;;;;;;;14.57;47.19;148738.09;5090173;28;20612;-55
2023/04/27 18:57:51;;;;;;;5.40;4.10;;;;;;;14.49;47.22;148720.47;5117962;27;20222;-51
2023/04/27 19:00:20;;;;;;;4.73;3.53;;;;;;;14.46;47.73;148711.63;5119373;27;20296;-54
2023/04/27 19:02:50;;;;;;;4.70;3.30;;;;;;;14.43;47.70;148704.09;5120812;27;20309;-53
2023/04/27 19:05:20;;;;;;;3.60;3.30;;;;;;;14.45;47.61;148709.09;5121636;27;20263;-55
2023/04/27 19:07:52;;;;;;;6.93;3.97;;;;;;;14.43;47.79;148705.34;5120659;27;20602;-51
2023/04/27 19:10:22;;;;;;;6.83;5.50;;;;;;;14.48;47.51;148716.69;5131391;27;20253;-50
2023/04/27 19:12:51;;;;;;;3.80;3.50;;;;;;;14.43;47.52;148705.34;5130875;27;20232;-47
2023/04/27 19:15:25;;;;;;;4.13;3.83;;;;;;;14.41;47.33;148700.31;5131201;27;20225;-48
2023/04/27 19:17:59;;;;;;;3.40;3.20;;;;;;;14.39;47.93;148695.25;5127077;27;20355;-50
2023/04/27 19:20:27;;;;;;;6.77;3.07;;;;;;;14.48;47.32;148717.94;5131463;27;20229;-52
2023/04/27 19:23:00;;;;;;;3.63;3.33;;;;;;;14.48;46.89;148717.94;5131304;27;20312;-51
2023/04/27 19:25:31;;;;;;;3.60;3.27;;;;;;;14.46;46.89;148712.88;5128584;27;20237;-51
2023/04/27 19:28:00;;;;;;;3.50;3.13;;;;;;;14.47;47.08;148715.41;5130753;27;20797;-57
2023/04/27 19:30:34;;;;;;;5.97;3.70;;;;;;;14.47;47.48;148714.16;5131505;27;20309;-55
2023/04/27 19:33:06;;;;;;;4.40;3.97;;;;;;;14.50;47.52;148723.00;5131245;27;20213;-52
2023/04/27 19:35:37;;;;;;;4.37;3.90;;;;;;;14.47;47.66;148715.41;5130472;27;20217;-52
2023/04/27 19:38:08;;;;;;;6.70;4.07;;;;;;;14.49;47.61;148720.47;5131051;27;20224;-52
2023/04/27 19:40:40;;;;;;;6.53;3.90;;;;;;;14.49;47.67;148720.47;5129865;27;20233;-48
2023/04/27 19:43:11;;;;;;;8.77;6.50;;;;;;;14.44;47.99;148706.63;5131155;27;20607;-48
2023/04/27 19:45:42;;;;;;;7.17;4.50;;;;;;;14.42;47.73;148702.84;5130292;27;20773;-48
2023/04/27 19:48:12;;;;;;;5.50;5.00;;;;;;;14.41;48.00;148700.31;5130439;27;20213;-48
2023/04/27 19:50:45;;;;;;;6.00;4.40;;;;;;;14.31;48.59;148675.03;5130871;27;20226;-52
2023/04/27 19:53:14;;;;;;;4.37;3.97;;;;;;;14.27;49.18;148663.66;5130320;27;20229;-52
2023/04/27 19:55:47;;;;;;;6.43;3.97;;;;;;;14.31;48.78;148675.03;5130356;27;20261;-52
2023/04/27 19:58:14;;;;;;;4.23;3.93;;;;;;;14.31;49.02;148675.03;5130400;27;20606;-52
2023/04/27 20:00:53;;;;;;;6.27;3.50;;;;;;;14.24;48.77;148657.34;5130583;27;20717;-46
2023/04/27 20:03:26;;;;;;;5.80;4.10;;;;;;;14.22;49.27;148652.31;5130451;27;20798;-48
2023/04/27 20:05:58;;;;;;;3.73;3.43;;;;;;;14.23;49.09;148654.84;5131028;27;20661;-46
2023/04/27 20:08:29;;;;;;;5.77;4.00;;;;;;;14.16;48.98;148638.47;5130143;27;20261;-47
2023/04/27 20:11:03;;;;;;;4.20;3.80;;;;;;;14.16;49.26;148637.19;5130480;27;20217;-47
2023/04/27 20:13:36;;;;;;;5.87;3.60;;;;;;;14.21;49.20;148649.81;5129953;27;20260;-48
2023/04/27 20:16:05;;;;;;;5.00;3.63;;;;;;;14.25;49.37;148658.63;5130495;27;20233;-49
2023/04/27 20:19:12;;;;;;;3.53;3.17;;;;;;;14.21;49.04;148649.81;5129564;27;20274;-50
2023/04/27 20:21:46;;;;;;;5.40;3.80;;;;;;;14.16;49.37;148637.19;5129856;27;20198;-52
2023/04/27 20:24:44;;;;;;;6.20;3.63;;;;;;;14.10;49.59;148623.34;5125987;27;20202;-53
2023/04/27 20:27:43;;;;;;;4.20;3.80;;;;;;;14.03;49.38;148604.41;5110202;28;20198;-49
2023/04/27 20:37:13;;;;;;;4.80;3.67;;;;;;;14.23;49.24;148653.56;5109116;28;20230;-48
2023/04/27 20:39:47;;;;;;;5.40;4.03;;;;;;;14.29;49.14;148669.97;5109958;28;20255;-48
2023/04/27 20:42:34;;;;;;;4.30;3.80;;;;;;;14.41;48.71;148699.03;5109912;28;20282;-46
2023/04/27 20:48:19;;;;;;;7.13;4.67;;;;;;;14.44;48.42;148706.63;5109347;28;20600;-48
2023/04/27 20:54:29;;;;;;;4.57;4.20;;;;;;;14.39;48.88;148695.25;5109072;28;20334;-53
2023/04/27 20:57:42;;;;;;;5.27;4.00;;;;;;;14.33;48.99;148680.09;5109396;28;20201;-52
2023/04/27 21:00:44;;;;;;;4.80;4.00;;;;;;;14.29;49.53;148668.72;5108091;28;20210;-48
2023/04/27 21:10:14;;;;;;;;;;;;;;;;;;;;;
2023/04/27 21:16:20;;;;;;;5.50;5.00;;;;;;;14.15;50.99;148635.94;5108202;28;20219;-49
2023/04/27 21:19:08;;;;;;;9.30;4.77;;;;;;;14.16;50.79;148638.47;5107230;28;20225;-48
2023/04/27 21:27:49;;;;;;;5.00;4.47;;;;;;;13.99;50.72;148595.63;5108393;28;20753;-48
2023/04/27 21:30:51;;;;;;;4.93;4.53;;;;;;;13.92;50.92;148576.66;5108092;28;20919;-48
2023/04/27 21:34:13;;;;;;;;;;;;;;;;;;;;;
2023/04/27 21:37:11;;;;;;;4.70;4.00;;;;;;;13.85;51.18;148560.31;5106732;28;20226;-48
2023/04/27 21:40:12;;;;;;;4.57;4.17;;;;;;;13.72;51.24;148527.53;5109555;28;20230;-48
2023/04/27 21:43:09;;;;;;;6.43;4.60;;;;;;;13.69;51.07;148521.22;5112837;28;20195;-50
2023/04/27 21:52:18;;;;;;;4.87;3.83;;;;;;;13.54;50.62;148482.16;5124737;28;20219;-48
2023/04/27 21:55:22;;;;;;;4.83;3.73;;;;;;;13.52;50.62;148477.13;5113373;28;20210;-48
2023/04/27 21:58:10;;;;;;;4.30;3.87;;;;;;;13.51;50.38;148475.84;5127506;28;20193;-48
2023/04/27 22:00:53;;;;;;;4.07;3.70;;;;;;;13.44;50.64;148459.44;5126178;28;20200;-49
2023/04/27 22:03:39;;;;;;;3.60;3.40;;;;;;;13.38;50.89;148444.34;5127149;28;20197;-48
2023/04/27 22:09:59;;;;;;;3.93;3.53;;;;;;;13.30;49.91;148422.94;5122891;28;20206;-52
2023/04/27 22:22:18;;;;;;;3.33;3.03;;;;;;;13.20;49.21;148397.75;5127297;28;20202;-48
2023/04/27 22:34:19;;;;;;;3.30;3.00;;;;;;;13.20;48.62;148399.00;5126589;28;20277;-53
2023/04/27 22:37:32;;;;;;;3.30;3.00;;;;;;;13.23;48.63;148406.53;5126726;28;20662;-52
2023/04/27 22:46:24;;;;;;;3.23;2.80;;;;;;;13.16;48.82;148387.63;5126748;28;20198;-49
2023/04/27 22:49:00;;;;;;;3.87;3.40;;;;;;;13.17;49.26;148390.16;5126367;28;20194;-47
2023/04/27 22:52:00;;;;;;;3.27;2.80;;;;;;;13.18;48.81;148393.94;5126570;28;20241;-47
2023/04/27 23:01:30;;;;;;;3.40;3.20;;;;;;;12.94;48.66;148334.69;5112780;28;20195;-48
2023/04/27 23:04:07;;;;;;;3.20;2.97;;;;;;;12.88;48.87;148319.53;5111322;28;20198;-48
2023/04/27 23:10:33;;;;;;;4.17;3.30;;;;;;;12.83;48.78;148306.97;5109366;28;20199;-49
2023/04/27 23:16:55;;;;;;;3.23;2.83;;;;;;;12.77;47.84;148291.84;5108306;28;20234;-48
2023/04/27 23:19:55;;;;;;;3.43;3.13;;;;;;;12.74;48.25;148284.31;5109747;28;20194;-47
2023/04/27 23:22:55;;;;;;;6.10;3.10;;;;;;;12.75;48.18;148285.56;5109142;28;20206;-48
2023/04/27 23:41:33;;;;;;;3.43;2.67;;;;;;;12.54;48.57;148233.91;5108889;28;20233;-48
2023/04/27 23:47:54;;;;;;;3.07;2.87;;;;;;;12.27;49.15;148168.44;5110123;28;20222;-47
2023/04/27 23:50:42;;;;;;;3.20;2.80;;;;;;;12.29;49.44;148172.25;5111910;28;20555;-51
2023/04/27 23:54:03;;;;;;;2.70;2.50;;;;;;;12.23;49.41;148158.38;5111271;28;20575;-52
